Time;durP1;ratioP1;P1;durP2;ratioP2;P2;SDS_P1;SDS_P2;PMS_P1;PMS_P2;Temp;Humidity;BMP_temperature;BMP_pressure;BME280_temperature;BME280_humidity;BME280_pressure;Samples;Min_cycle;Max_cycle;Signal;HPM_P1;HPM_P2
2022/01/17 00:00:25;;;;;;;16.20;11.43;;;3.70;96.90;;;;;;4997183;28;20038;-68
2022/01/17 00:02:52;;;;;;;15.43;11.20;;;3.80;96.70;;;;;;4998118;28;20117;-68
2022/01/17 00:05:18;;;;;;;14.63;10.45;;;3.80;96.70;;;;;;4997314;28;20030;-68
2022/01/17 00:07:44;;;;;;;15.77;10.82;;;3.80;96.70;;;;;;4997191;28;20033;-68
2022/01/17 00:10:11;;;;;;;15.20;11.07;;;3.90;96.70;;;;;;4997130;28;20026;-68
2022/01/17 00:12:43;;;;;;;15.95;10.38;;;4.00;96.50;;;;;;4997526;28;20089;-69
2022/01/17 00:15:17;;;;;;;15.48;10.15;;;4.00;96.30;;;;;;4998505;28;20547;-68
2022/01/17 00:17:47;;;;;;;14.13;10.57;;;4.10;96.40;;;;;;4997299;28;20053;-69
2022/01/17 00:20:24;;;;;;;14.23;9.05;;;4.10;96.20;;;;;;4996316;28;20045;-69
2022/01/17 00:22:51;;;;;;;13.38;10.32;;;4.10;96.20;;;;;;4999666;28;20037;-69
2022/01/17 00:25:16;;;;;;;12.52;9.45;;;4.10;97.10;;;;;;5001415;28;20077;-70
2022/01/17 00:27:42;;;;;;;14.00;9.27;;;4.10;96.30;;;;;;5000130;28;20108;-69
2022/01/17 00:30:09;;;;;;;13.18;9.60;;;4.00;96.50;;;;;;4998477;28;20160;-66
2022/01/17 00:32:35;;;;;;;12.70;8.70;;;3.90;96.50;;;;;;5000010;28;20452;-68
2022/01/17 00:35:01;;;;;;;13.20;9.38;;;3.80;96.80;;;;;;5002897;28;20087;-69
2022/01/17 00:37:26;;;;;;;14.45;9.40;;;3.80;96.70;;;;;;5003748;28;20029;-70
2022/01/17 00:39:52;;;;;;;15.70;9.93;;;3.80;96.90;;;;;;5004472;28;20054;-70
2022/01/17 00:42:17;;;;;;;10.55;7.97;;;3.70;97.00;;;;;;5003194;28;20064;-69
2022/01/17 00:44:43;;;;;;;13.30;9.30;;;3.80;96.90;;;;;;4999779;28;20030;-68
2022/01/17 00:47:09;;;;;;;12.30;8.70;;;3.90;96.70;;;;;;5002928;28;20029;-70
2022/01/17 00:49:34;;;;;;;17.20;10.85;;;4.00;96.50;;;;;;5003595;28;20170;-68
2022/01/17 00:52:00;;;;;;;13.30;9.20;;;4.00;96.50;;;;;;5004475;28;20026;-70
2022/01/17 00:54:28;;;;;;;12.02;8.70;;;4.00;96.30;;;;;;5004022;28;21001;-68
2022/01/17 00:56:53;;;;;;;19.45;11.40;;;4.10;96.40;;;;;;5005517;28;20041;-69
2022/01/17 00:59:22;;;;;;;14.15;9.75;;;4.20;96.20;;;;;;5003556;28;20034;-70
2022/01/17 01:01:47;;;;;;;11.25;8.23;;;4.30;96.00;;;;;;5006122;28;20040;-69
2022/01/17 01:04:13;;;;;;;10.20;7.25;;;4.30;95.70;;;;;;5000955;28;20030;-69
2022/01/17 01:06:39;;;;;;;11.68;7.78;;;4.20;95.80;;;;;;5003510;28;20054;-69
2022/01/17 01:09:05;;;;;;;9.50;7.53;;;4.20;95.80;;;;;;5002992;28;20077;-69
2022/01/17 01:11:30;;;;;;;10.20;7.60;;;4.10;95.70;;;;;;5004107;28;20476;-69
2022/01/17 01:13:56;;;;;;;8.90;6.50;;;4.10;95.90;;;;;;5003378;28;20027;-69
2022/01/17 01:16:30;;;;;;;8.85;6.68;;;4.10;95.80;;;;;;5001253;28;20038;-69
2022/01/17 01:19:09;;;;;;;9.73;6.60;;;4.10;95.70;;;;;;5000893;28;20034;-69
2022/01/17 01:29:46;;;;;;;10.07;6.97;;;4.00;96.00;;;;;;5005521;28;20033;-69
2022/01/17 01:32:14;;;;;;;10.93;7.45;;;3.90;96.00;;;;;;5003571;28;20048;-69
2022/01/17 01:34:45;;;;;;;10.68;7.55;;;4.00;96.10;;;;;;5003709;28;20030;-69
2022/01/17 01:37:11;;;;;;;11.23;7.13;;;4.00;95.90;;;;;;5002946;28;20520;-68
2022/01/17 01:39:38;;;;;;;8.10;6.38;;;4.10;95.90;;;;;;5003355;28;20500;-68
2022/01/17 01:42:04;;;;;;;10.10;6.97;;;4.10;95.70;;;;;;5004193;28;20029;-69
2022/01/17 01:44:30;;;;;;;8.27;6.60;;;4.10;95.70;;;;;;5001986;28;20019;-69
2022/01/17 01:46:57;;;;;;;9.07;7.20;;;4.20;95.70;;;;;;4999889;28;20384;-68
2022/01/17 01:49:24;;;;;;;8.48;5.95;;;4.30;95.60;;;;;;5003301;28;20053;-68
2022/01/17 01:51:50;;;;;;;10.23;7.50;;;4.50;95.30;;;;;;4998783;28;20033;-68
2022/01/17 01:54:16;;;;;;;11.13;7.65;;;4.60;95.00;;;;;;5001424;28;20118;-68
2022/01/17 01:56:45;;;;;;;10.32;6.75;;;4.60;94.80;;;;;;5003246;28;20088;-68
2022/01/17 01:59:12;;;;;;;9.30;6.32;;;4.60;94.70;;;;;;5000058;28;20073;-69
2022/01/17 02:01:38;;;;;;;8.52;6.47;;;4.50;94.80;;;;;;5001438;28;20484;-69
2022/01/17 02:04:05;;;;;;;8.05;6.10;;;4.40;95.10;;;;;;5003455;28;20040;-69
2022/01/17 02:06:35;;;;;;;8.45;6.15;;;4.30;95.10;;;;;;5003392;28;20046;-69
2022/01/17 02:09:03;;;;;;;10.43;7.30;;;4.20;95.40;;;;;;5003137;28;20026;-69
2022/01/17 02:11:28;;;;;;;9.18;6.85;;;4.30;95.50;;;;;;4999802;28;20384;-68
2022/01/17 02:13:54;;;;;;;10.05;6.55;;;4.20;95.40;;;;;;5002255;28;20042;-68
2022/01/17 02:16:23;;;;;;;10.65;7.15;;;4.20;95.40;;;;;;5000771;28;20045;-68
2022/01/17 02:18:49;;;;;;;10.40;6.97;;;4.20;95.40;;;;;;4999538;28;20026;-68
2022/01/17 02:23:47;;;;;;;11.45;7.00;;;4.20;95.20;;;;;;4999479;28;20042;-68
2022/01/17 02:26:15;;;;;;;8.75;6.68;;;4.20;95.10;;;;;;5004682;28;20030;-69
2022/01/17 02:28:49;;;;;;;8.57;6.65;;;4.20;95.10;;;;;;4999768;28;20682;-68
2022/01/17 02:31:15;;;;;;;8.48;6.03;;;4.20;95.10;;;;;;4997698;28;20048;-69
2022/01/17 02:33:41;;;;;;;8.80;6.45;;;4.20;95.20;;;;;;5004185;28;20030;-68
2022/01/17 02:36:08;;;;;;;9.15;6.53;;;4.10;95.20;;;;;;4999156;28;20037;-68
2022/01/17 02:38:34;;;;;;;9.30;6.82;;;4.20;95.20;;;;;;5001616;28;20034;-69
2022/01/17 02:41:02;;;;;;;9.18;7.00;;;4.20;95.10;;;;;;5000585;28;20092;-68
2022/01/17 02:43:28;;;;;;;12.88;8.15;;;4.10;95.10;;;;;;5001201;28;20120;-68
2022/01/17 02:48:28;;;;;;;12.10;8.38;;;4.10;95.10;;;;;;5001460;28;20115;-67
2022/01/17 02:50:56;;;;;;;12.70;8.75;;;4.00;95.50;;;;;;4998274;28;20045;-67
2022/01/17 02:53:22;;;;;;;11.98;7.97;;;4.10;95.40;;;;;;4996690;28;20318;-68
2022/01/17 02:55:50;;;;;;;13.00;8.88;;;4.30;95.20;;;;;;5000793;28;20121;-68
2022/01/17 02:58:17;;;;;;;11.27;7.50;;;4.30;95.10;;;;;;4999502;28;20026;-68
2022/01/17 03:00:44;;;;;;;10.15;7.28;;;4.30;94.90;;;;;;4998092;28;20038;-68
2022/01/17 03:03:17;;;;;;;10.30;7.65;;;4.30;94.80;;;;;;5001471;28;20659;-67
2022/01/17 03:05:44;;;;;;;11.35;8.02;;;4.30;95.00;;;;;;4997322;28;20057;-69
2022/01/17 03:08:11;;;;;;;10.38;7.65;;;4.30;95.10;;;;;;4997725;28;20512;-68
2022/01/17 03:13:04;;;;;;;10.32;8.23;;;4.40;94.80;;;;;;4999015;28;20111;-67
2022/01/17 03:15:33;;;;;;;8.88;7.13;;;4.50;94.60;;;;;;5000139;28;20045;-68
2022/01/17 03:18:00;;;;;;;10.95;8.10;;;4.40;94.40;;;;;;4998133;28;20117;-68
2022/01/17 03:20:26;;;;;;;11.40;8.07;;;4.40;94.70;;;;;;4996662;28;20026;-68
2022/01/17 03:22:54;;;;;;;8.80;6.47;;;4.40;94.70;;;;;;4998564;28;20030;-70
2022/01/17 03:25:20;;;;;;;10.35;7.10;;;4.40;94.80;;;;;;4999547;28;20084;-68
2022/01/17 03:27:46;;;;;;;10.77;7.22;;;4.30;94.80;;;;;;4998265;28;20112;-69
2022/01/17 03:30:11;;;;;;;10.55;7.70;;;4.20;94.90;;;;;;4997965;28;20104;-68
2022/01/17 03:32:37;;;;;;;11.23;7.63;;;4.20;95.10;;;;;;4999511;28;20030;-68
2022/01/17 03:35:04;;;;;;;12.50;9.15;;;4.10;95.20;;;;;;5002936;28;20034;-69
2022/01/17 03:37:29;;;;;;;9.23;6.95;;;4.10;95.30;;;;;;4997777;28;20084;-68
2022/01/17 03:39:55;;;;;;;10.30;7.90;;;4.20;95.10;;;;;;5000620;28;20046;-68
2022/01/17 03:42:22;;;;;;;7.25;5.97;;;4.20;95.10;;;;;;5000008;28;20034;-68
2022/01/17 03:44:48;;;;;;;8.27;6.20;;;4.10;95.00;;;;;;4995064;28;20018;-67
2022/01/17 03:47:14;;;;;;;10.88;6.35;;;4.20;95.00;;;;;;4998473;28;20069;-68
2022/01/17 03:49:39;;;;;;;9.25;6.60;;;4.20;94.80;;;;;;4998431;28;20063;-68
2022/01/17 03:52:06;;;;;;;7.97;6.18;;;4.30;94.90;;;;;;4997525;28;20022;-68
2022/01/17 03:54:31;;;;;;;7.72;5.72;;;4.30;94.80;;;;;;5000424;28;20045;-67
2022/01/17 03:56:58;;;;;;;9.10;6.45;;;4.20;94.90;;;;;;4998958;28;20034;-69
2022/01/17 03:59:25;;;;;;;7.47;5.30;;;4.20;94.90;;;;;;4999192;28;20541;-68
2022/01/17 04:01:51;;;;;;;8.07;5.85;;;4.10;94.90;;;;;;5004340;28;20033;-68
2022/01/17 04:04:17;;;;;;;8.63;5.72;;;4.10;95.00;;;;;;5005957;28;20511;-68
2022/01/17 04:06:43;;;;;;;7.78;5.95;;;4.10;95.00;;;;;;5001521;28;20030;-69
2022/01/17 04:09:09;;;;;;;8.27;5.85;;;4.10;94.90;;;;;;4998903;28;20040;-69
2022/01/17 04:11:35;;;;;;;6.95;5.28;;;4.10;94.90;;;;;;5005695;28;20030;-69
2022/01/17 04:14:00;;;;;;;8.60;5.45;;;4.20;94.70;;;;;;5001653;28;20496;-69
2022/01/17 04:16:29;;;;;;;6.85;5.35;;;4.20;94.60;;;;;;5002717;28;20046;-68
2022/01/17 04:18:55;;;;;;;7.90;5.72;;;4.20;94.70;;;;;;5000036;28;20038;-69
2022/01/17 04:21:30;;;;;;;6.93;5.80;;;4.10;94.70;;;;;;5004215;28;20033;-68
2022/01/17 04:23:56;;;;;;;7.50;5.38;;;4.20;94.70;;;;;;5001818;28;20042;-68
2022/01/17 04:26:22;;;;;;;8.70;6.10;;;4.10;94.90;;;;;;5001161;28;20109;-69
2022/01/17 04:28:47;;;;;;;7.70;6.15;;;4.10;94.90;;;;;;5003217;28;20320;-68
2022/01/17 04:31:13;;;;;;;7.93;6.00;;;4.10;94.90;;;;;;4998347;28;20034;-67
2022/01/17 04:33:39;;;;;;;8.13;5.70;;;4.00;95.10;;;;;;5005340;28;20089;-69
2022/01/17 04:36:07;;;;;;;8.27;5.22;;;4.10;95.00;;;;;;5003954;28;20046;-69
2022/01/17 04:38:33;;;;;;;10.60;5.70;;;4.10;95.00;;;;;;5005008;28;20022;-69
2022/01/17 04:41:05;;;;;;;8.90;6.25;;;4.00;95.00;;;;;;5005421;28;20089;-69
2022/01/17 04:46:03;;;;;;;;;;;4.00;95.20;;;;;;5004529;28;20041;-68
2022/01/17 04:48:33;;;;;;;8.05;5.22;;;4.00;95.30;;;;;;5004529;28;19921;-68
2022/01/17 04:51:02;;;;;;;10.57;6.78;;;4.00;95.00;;;;;;5002256;28;20575;-68
2022/01/17 04:53:28;;;;;;;7.57;6.15;;;4.10;95.00;;;;;;5002242;28;20113;-69
2022/01/17 04:55:54;;;;;;;7.65;5.65;;;4.20;94.90;;;;;;5003939;28;20030;-69
2022/01/17 04:58:21;;;;;;;7.50;5.80;;;4.20;94.60;;;;;;5003142;28;20543;-69
2022/01/17 05:00:47;;;;;;;8.43;6.03;;;4.20;94.50;;;;;;5001282;28;20770;-69
2022/01/17 05:03:21;;;;;;;8.00;5.28;;;4.20;94.50;;;;;;5003504;28;20057;-68
2022/01/17 05:05:48;;;;;;;7.22;5.75;;;4.10;94.80;;;;;;5003892;28;20034;-68
2022/01/17 05:08:15;;;;;;;8.95;5.45;;;4.10;95.00;;;;;;5002187;28;20033;-68
2022/01/17 05:10:50;;;;;;;7.65;5.38;;;4.00;94.70;;;;;;5004094;28;20042;-68
2022/01/17 05:13:20;;;;;;;7.60;5.78;;;4.10;94.80;;;;;;5002794;28;20030;-68
2022/01/17 05:15:51;;;;;;;8.70;5.63;;;4.20;94.70;;;;;;5004781;28;20084;-68
2022/01/17 05:21:01;;;;;;;7.40;5.63;;;4.20;94.40;;;;;;5002915;28;20053;-67
2022/01/17 05:23:27;;;;;;;8.13;5.15;;;4.30;94.20;;;;;;5006215;28;20034;-68
2022/01/17 05:25:52;;;;;;;7.32;4.53;;;4.40;94.10;;;;;;5004876;28;20041;-69
2022/01/17 05:28:18;;;;;;;7.72;5.07;;;4.40;93.90;;;;;;5004084;28;20600;-68
2022/01/17 05:30:44;;;;;;;7.13;4.88;;;4.40;93.80;;;;;;5001743;28;20609;-67
2022/01/17 05:33:09;;;;;;;5.70;4.53;;;4.50;93.70;;;;;;5000042;28;20037;-68
2022/01/17 05:35:35;;;;;;;7.70;5.25;;;4.50;93.60;;;;;;5002813;28;20514;-67
2022/01/17 05:38:01;;;;;;;6.88;4.53;;;4.50;93.60;;;;;;5000086;28;20048;-68
2022/01/17 05:40:27;;;;;;;7.53;5.22;;;4.60;93.20;;;;;;5005824;28;20034;-67
2022/01/17 05:42:53;;;;;;;7.55;5.00;;;4.60;93.20;;;;;;5001751;28;20113;-68
2022/01/17 05:45:19;;;;;;;6.25;4.80;;;4.70;93.10;;;;;;5002623;28;20782;-66
2022/01/17 05:47:45;;;;;;;6.80;4.78;;;4.70;93.00;;;;;;5004534;28;20072;-68
2022/01/17 05:50:11;;;;;;;6.47;4.55;;;4.60;92.90;;;;;;4992630;28;20058;-68
2022/01/17 05:52:38;;;;;;;7.05;4.68;;;4.60;93.00;;;;;;5003413;28;20037;-68
2022/01/17 05:55:07;;;;;;;6.32;4.85;;;4.60;93.10;;;;;;4999553;28;20096;-67
2022/01/17 05:57:32;;;;;;;7.38;5.00;;;4.60;93.20;;;;;;4999541;28;20045;-68
2022/01/17 06:00:00;;;;;;;7.85;4.57;;;4.60;93.10;;;;;;5004787;28;20034;-68
2022/01/17 06:02:26;;;;;;;6.53;4.47;;;4.60;93.10;;;;;;5003717;28;20639;-68
2022/01/17 06:04:51;;;;;;;6.72;5.43;;;4.70;93.10;;;;;;5002063;28;20038;-68
2022/01/17 06:07:17;;;;;;;6.82;5.18;;;4.70;93.00;;;;;;4999040;28;20040;-67
2022/01/17 06:09:43;;;;;;;8.15;5.78;;;4.60;93.00;;;;;;5002192;28;20768;-68
2022/01/17 06:12:09;;;;;;;10.48;5.97;;;4.60;93.10;;;;;;5002312;28;20191;-68
2022/01/17 06:14:35;;;;;;;7.15;5.28;;;4.60;93.20;;;;;;5005980;28;20022;-69
2022/01/17 06:17:00;;;;;;;6.55;5.22;;;4.60;93.20;;;;;;4998737;28;20523;-68
2022/01/17 06:19:26;;;;;;;7.22;4.97;;;4.50;93.30;;;;;;4997063;28;20975;-68
2022/01/17 06:21:52;;;;;;;7.43;5.57;;;4.60;93.30;;;;;;5001728;28;20030;-69
2022/01/17 06:24:17;;;;;;;7.15;5.50;;;4.50;93.40;;;;;;5001827;28;20033;-68
2022/01/17 06:26:44;;;;;;;8.07;5.03;;;4.50;93.50;;;;;;5004545;28;20042;-68
2022/01/17 06:29:11;;;;;;;8.40;5.70;;;4.50;93.50;;;;;;4999185;28;20045;-69
2022/01/17 06:31:37;;;;;;;12.02;6.47;;;4.50;93.60;;;;;;5003076;28;20049;-69
2022/01/17 06:34:06;;;;;;;8.88;5.85;;;4.50;93.60;;;;;;5001240;28;20064;-69
2022/01/17 06:36:32;;;;;;;6.32;5.13;;;4.50;93.60;;;;;;5002950;28;20034;-69
2022/01/17 06:38:58;;;;;;;7.68;5.18;;;4.50;93.50;;;;;;5000657;28;20037;-68
2022/01/17 06:41:23;;;;;;;6.03;4.72;;;4.40;93.80;;;;;;4999624;28;20040;-68
2022/01/17 06:43:49;;;;;;;9.65;5.32;;;4.40;93.70;;;;;;5002612;28;20042;-69
2022/01/17 06:46:15;;;;;;;6.68;4.90;;;4.40;93.90;;;;;;5000519;28;20117;-68
2022/01/17 06:48:42;;;;;;;6.40;5.07;;;4.40;93.90;;;;;;5000694;28;20029;-68
2022/01/17 06:51:08;;;;;;;7.72;5.72;;;4.30;94.10;;;;;;4996741;28;20058;-67
2022/01/17 06:53:33;;;;;;;8.07;6.15;;;4.30;94.40;;;;;;5000884;28;20100;-69
2022/01/17 06:56:00;;;;;;;7.90;5.95;;;4.30;94.40;;;;;;5001953;28;20062;-69
2022/01/17 06:58:27;;;;;;;7.18;5.35;;;4.20;94.60;;;;;;5000936;28;20101;-68
2022/01/17 07:00:53;;;;;;;7.47;5.25;;;4.20;94.60;;;;;;4998592;28;20030;-68
2022/01/17 07:03:19;;;;;;;8.43;6.38;;;4.20;94.60;;;;;;5002062;28;20041;-69
2022/01/17 07:05:44;;;;;;;8.50;5.88;;;4.10;94.70;;;;;;5002150;28;20420;-69
2022/01/17 07:08:10;;;;;;;8.20;5.53;;;4.10;94.90;;;;;;4997631;28;20042;-69
2022/01/17 07:10:36;;;;;;;15.98;7.20;;;4.20;94.90;;;;;;4998362;28;20033;-70
2022/01/17 07:13:02;;;;;;;6.85;5.53;;;4.30;95.30;;;;;;5002215;28;20038;-69
2022/01/17 07:15:28;;;;;;;5.55;4.70;;;4.40;94.60;;;;;;5001819;28;20108;-70
2022/01/17 07:17:53;;;;;;;8.85;4.72;;;4.30;94.40;;;;;;5003573;28;20456;-70
2022/01/17 07:20:19;;;;;;;6.68;4.50;;;4.40;94.30;;;;;;4998354;28;20030;-70
2022/01/17 07:22:44;;;;;;;6.80;5.40;;;4.50;94.20;;;;;;5001193;28;20111;-70
2022/01/17 07:25:11;;;;;;;5.75;4.30;;;4.60;94.10;;;;;;5001021;28;20057;-70
2022/01/17 07:27:39;;;;;;;7.47;4.97;;;4.60;94.10;;;;;;5002059;28;20044;-70
2022/01/17 07:30:07;;;;;;;5.80;4.72;;;4.60;94.20;;;;;;5004097;28;20026;-70
2022/01/17 07:32:33;;;;;;;7.43;4.68;;;4.70;94.30;;;;;;5000639;28;20034;-70
2022/01/17 07:34:59;;;;;;;5.47;4.78;;;4.60;94.30;;;;;;5004320;28;20050;-71
2022/01/17 07:37:25;;;;;;;7.45;5.07;;;4.60;94.50;;;;;;4997968;28;20132;-71
2022/01/17 07:39:50;;;;;;;7.00;5.43;;;4.50;94.60;;;;;;5004776;28;20026;-70
2022/01/17 07:42:16;;;;;;;6.10;4.90;;;4.50;94.60;;;;;;5000398;28;20109;-71
2022/01/17 07:44:43;;;;;;;6.43;5.13;;;4.50;94.60;;;;;;5000073;28;20026;-71
2022/01/17 07:47:17;;;;;;;6.70;4.95;;;4.60;94.80;;;;;;4996854;28;20154;-70
2022/01/17 07:49:45;;;;;;;6.03;4.68;;;4.60;94.70;;;;;;5002703;28;20167;-72
2022/01/17 07:52:13;;;;;;;6.68;4.97;;;4.60;94.60;;;;;;4998206;28;20018;-71
2022/01/17 07:54:43;;;;;;;6.18;4.45;;;4.60;94.60;;;;;;5002000;28;20156;-71
2022/01/17 07:57:11;;;;;;;4.93;4.43;;;4.60;94.60;;;;;;4998790;28;20473;-71
2022/01/17 07:59:37;;;;;;;6.53;5.15;;;4.60;94.70;;;;;;5002056;28;20093;-72
2022/01/17 08:02:03;;;;;;;4.80;4.30;;;4.70;94.70;;;;;;4997888;28;20038;-70
2022/01/17 08:04:29;;;;;;;7.13;4.45;;;4.70;94.60;;;;;;4997636;28;20038;-71
2022/01/17 08:06:55;;;;;;;5.13;4.45;;;4.80;94.60;;;;;;5001739;28;20165;-70
2022/01/17 08:09:29;;;;;;;6.82;4.55;;;4.80;94.40;;;;;;5000124;28;20111;-69
2022/01/17 08:11:56;;;;;;;7.07;4.18;;;4.80;94.50;;;;;;5006268;28;20041;-70
2022/01/17 08:14:23;;;;;;;4.93;4.05;;;4.80;94.40;;;;;;5001463;28;20113;-69
2022/01/17 08:16:49;;;;;;;5.70;4.32;;;4.80;94.50;;;;;;4997871;28;20042;-70
2022/01/17 08:19:15;;;;;;;5.88;4.68;;;4.80;94.60;;;;;;5002686;28;20029;-70
2022/01/17 08:21:41;;;;;;;7.82;5.28;;;4.80;94.80;;;;;;5000544;28;20037;-70
2022/01/17 08:24:07;;;;;;;7.05;5.53;;;4.70;95.30;;;;;;5000427;28;20527;-71
2022/01/17 08:26:33;;;;;;;5.93;4.78;;;4.60;95.70;;;;;;4996283;28;20596;-70
2022/01/17 08:28:58;;;;;;;7.13;5.07;;;4.60;95.80;;;;;;4993585;28;20032;-71
2022/01/17 08:31:24;;;;;;;7.40;5.20;;;4.50;95.80;;;;;;4994847;28;20038;-70
2022/01/17 08:33:49;;;;;;;6.68;4.95;;;4.50;96.00;;;;;;4992647;28;20033;-71
2022/01/17 08:36:19;;;;;;;8.98;4.15;;;4.50;95.90;;;;;;4993090;28;20652;-69
2022/01/17 08:38:48;;;;;;;6.95;5.25;;;4.50;95.90;;;;;;5000152;28;20519;-69
2022/01/17 08:41:14;;;;;;;6.35;4.78;;;4.50;95.90;;;;;;4997234;28;20026;-69
2022/01/17 08:43:39;;;;;;;6.60;4.78;;;4.60;96.00;;;;;;4996593;28;20038;-69
2022/01/17 08:46:06;;;;;;;6.53;4.88;;;4.60;95.80;;;;;;4999223;28;20844;-70
2022/01/17 08:48:32;;;;;;;6.43;4.80;;;4.60;95.70;;;;;;5001038;28;20480;-71
2022/01/17 08:50:58;;;;;;;6.03;4.60;;;4.60;95.90;;;;;;4999247;28;20054;-70
2022/01/17 08:53:23;;;;;;;5.30;4.25;;;4.60;95.70;;;;;;4999539;28;20025;-71
2022/01/17 08:55:49;;;;;;;5.28;4.32;;;4.70;95.80;;;;;;5002738;28;20022;-70
2022/01/17 08:58:16;;;;;;;4.97;4.05;;;4.70;95.70;;;;;;5001800;28;20065;-71
2022/01/17 09:00:42;;;;;;;6.25;4.57;;;4.70;95.70;;;;;;5001613;28;20469;-70
2022/01/17 09:03:08;;;;;;;10.32;4.60;;;4.70;95.70;;;;;;5000912;28;20041;-70
2022/01/17 09:05:34;;;;;;;6.63;4.90;;;4.70;95.70;;;;;;4999968;28;20057;-71
2022/01/17 09:08:01;;;;;;;5.72;4.80;;;4.70;95.80;;;;;;5000593;28;20508;-71
2022/01/17 09:10:28;;;;;;;6.80;4.82;;;4.70;95.80;;;;;;4999906;28;20030;-70
2022/01/17 09:12:54;;;;;;;6.03;4.57;;;4.70;95.70;;;;;;4999347;28;20038;-70
2022/01/17 09:15:20;;;;;;;7.93;5.20;;;4.70;95.70;;;;;;5001879;28;20034;-70
2022/01/17 09:17:46;;;;;;;6.28;5.13;;;4.80;95.80;;;;;;4998794;28;20096;-69
2022/01/17 09:20:15;;;;;;;7.10;5.28;;;4.80;95.70;;;;;;5001683;28;20093;-71
2022/01/17 09:22:40;;;;;;;7.70;4.88;;;4.80;95.70;;;;;;5000552;28;20531;-70
2022/01/17 09:25:07;;;;;;;10.13;5.03;;;4.80;95.70;;;;;;5001542;28;20077;-71
2022/01/17 09:27:34;;;;;;;8.07;5.55;;;4.80;95.50;;;;;;4999664;28;20034;-71
2022/01/17 09:30:00;;;;;;;5.28;4.18;;;4.80;95.50;;;;;;5001540;28;20491;-71
2022/01/17 09:32:25;;;;;;;6.05;5.10;;;4.90;95.60;;;;;;5000661;28;20036;-71
2022/01/17 09:34:51;;;;;;;5.90;4.50;;;4.90;95.60;;;;;;5005788;28;20064;-70
2022/01/17 09:37:17;;;;;;;6.28;4.65;;;4.90;95.50;;;;;;5002184;28;20117;-70
2022/01/17 09:39:43;;;;;;;5.75;4.57;;;4.90;95.40;;;;;;5000675;28;20691;-71
2022/01/17 09:42:09;;;;;;;6.38;4.57;;;5.00;95.30;;;;;;5011854;28;20034;-70
2022/01/17 09:44:36;;;;;;;6.35;4.40;;;5.00;95.20;;;;;;5001916;28;20114;-71
2022/01/17 09:47:06;;;;;;;5.78;4.30;;;5.00;95.20;;;;;;4998494;28;20484;-72
2022/01/17 09:49:43;;;;;;;6.65;4.45;;;5.00;95.20;;;;;;4996024;28;20058;-71
2022/01/17 09:52:25;;;;;;;6.43;4.70;;;5.00;95.30;;;;;;4996107;28;20037;-71
2022/01/17 09:54:53;;;;;;;6.10;4.47;;;5.10;95.30;;;;;;5013666;28;20446;-71
2022/01/17 09:57:19;;;;;;;5.13;4.22;;;5.10;95.20;;;;;;5001035;28;20432;-71
2022/01/17 09:59:45;;;;;;;5.82;4.50;;;5.00;95.20;;;;;;4997223;28;20427;-71
2022/01/17 10:02:13;;;;;;;5.60;4.82;;;5.10;95.20;;;;;;5001472;28;20034;-71
2022/01/17 10:04:39;;;;;;;6.18;4.78;;;5.10;95.20;;;;;;4996251;28;20662;-70
2022/01/17 10:07:06;;;;;;;6.30;4.72;;;5.10;95.20;;;;;;4999504;28;20066;-72
2022/01/17 10:09:33;;;;;;;6.28;4.78;;;5.10;95.20;;;;;;4999716;28;20044;-70
2022/01/17 10:12:00;;;;;;;7.40;4.97;;;5.10;95.20;;;;;;5002924;28;20077;-71
2022/01/17 10:14:27;;;;;;;6.07;4.72;;;5.10;95.20;;;;;;5000631;28;20026;-71
2022/01/17 10:16:54;;;;;;;6.22;4.85;;;5.20;95.10;;;;;;5000748;28;20080;-71
2022/01/17 10:19:24;;;;;;;8.70;5.65;;;5.20;95.10;;;;;;5002124;28;20075;-71
2022/01/17 10:21:53;;;;;;;6.18;4.78;;;5.20;95.00;;;;;;4998598;28;20529;-71
2022/01/17 10:24:38;;;;;;;6.93;5.45;;;5.20;95.10;;;;;;5004370;28;20026;-71
2022/01/17 10:35:30;;;;;;;7.93;5.22;;;5.10;95.10;;;;;;5002133;28;20040;-71
2022/01/17 10:38:08;;;;;;;6.80;4.75;;;5.20;95.20;;;;;;5002218;28;20101;-71
2022/01/17 10:40:37;;;;;;;5.90;4.60;;;5.20;95.20;;;;;;5000230;28;20034;-70
2022/01/17 10:43:05;;;;;;;6.97;5.28;;;5.20;95.30;;;;;;4998873;28;20393;-71
2022/01/17 10:45:40;;;;;;;6.18;4.90;;;5.20;95.20;;;;;;4998791;28;20052;-70
2022/01/17 10:48:07;;;;;;;4.38;3.97;;;5.20;95.20;;;;;;5002351;28;20510;-71
2022/01/17 10:50:39;;;;;;;6.35;4.70;;;5.20;95.10;;;;;;4996857;28;20149;-68
2022/01/17 10:53:09;;;;;;;;;;;5.20;95.20;;;;;;4997225;28;20030;-70
2022/01/17 10:55:57;;;;;;;7.82;5.13;;;5.20;95.10;;;;;;4995861;28;19988;-70
2022/01/17 10:58:31;;;;;;;7.88;5.00;;;5.20;95.20;;;;;;4995507;28;20052;-71
2022/01/17 11:01:02;;;;;;;6.25;5.05;;;5.20;95.40;;;;;;4996842;28;20645;-71
2022/01/17 11:03:30;;;;;;;6.53;4.87;;;5.20;95.40;;;;;;4998954;28;20387;-68
2022/01/17 11:05:58;;;;;;;7.18;5.05;;;5.30;95.90;;;;;;4997877;28;20109;-69
2022/01/17 11:08:26;;;;;;;6.28;4.90;;;5.40;95.20;;;;;;4997020;28;20032;-70
2022/01/17 11:10:57;;;;;;;6.78;5.20;;;5.40;95.30;;;;;;4999451;28;20045;-68
2022/01/17 11:13:29;;;;;;;6.23;5.07;;;5.30;95.40;;;;;;5000881;28;20488;-70
2022/01/17 11:16:00;;;;;;;5.57;4.65;;;5.30;95.50;;;;;;5003051;28;20330;-70
2022/01/17 11:18:28;;;;;;;;;;;5.30;95.70;;;;;;5000177;28;20030;-70
2022/01/17 11:20:58;;;;;;;7.05;5.40;;;5.30;95.70;;;;;;5005176;28;19953;-69
2022/01/17 11:23:25;;;;;;;6.55;5.07;;;5.30;95.70;;;;;;5000855;28;20034;-70
2022/01/17 11:25:54;;;;;;;6.72;4.93;;;5.30;95.80;;;;;;5001086;28;20121;-68
2022/01/17 11:28:23;;;;;;;6.78;5.20;;;5.20;95.80;;;;;;4999354;28;20030;-69
2022/01/17 11:30:52;;;;;;;7.50;5.03;;;5.20;96.10;;;;;;5003368;28;20109;-70
2022/01/17 11:33:18;;;;;;;6.72;4.72;;;5.20;96.10;;;;;;4998282;28;20022;-69
2022/01/17 11:35:51;;;;;;;7.32;4.80;;;5.20;96.00;;;;;;4999943;28;20541;-69
2022/01/17 11:38:21;;;;;;;5.55;4.20;;;5.20;96.10;;;;;;5000095;28;23755;-69
2022/01/17 11:40:46;;;;;;;7.30;4.72;;;5.20;96.10;;;;;;5001492;28;20786;-69
2022/01/17 11:43:19;;;;;;;8.55;5.10;;;5.30;96.00;;;;;;5001829;28;20061;-69
2022/01/17 11:45:46;;;;;;;7.90;4.72;;;5.30;96.00;;;;;;5001178;28;20121;-69
2022/01/17 11:48:31;;;;;;;6.55;4.55;;;5.30;96.10;;;;;;5005120;28;20095;-70
2022/01/17 11:51:17;;;;;;;5.10;3.85;;;5.30;95.90;;;;;;5001345;28;20054;-69
2022/01/17 11:53:48;;;;;;;5.50;4.45;;;5.30;95.90;;;;;;4999362;28;20054;-69
2022/01/17 11:56:35;;;;;;;5.40;4.63;;;5.40;96.00;;;;;;5003632;28;20037;-68
2022/01/17 11:59:21;;;;;;;6.22;4.32;;;5.40;96.10;;;;;;5000957;28;20045;-68
2022/01/17 12:02:18;;;;;;;5.85;4.35;;;5.40;96.00;;;;;;5003930;28;20049;-69
2022/01/17 12:05:13;;;;;;;5.63;4.40;;;5.50;95.90;;;;;;5002890;28;20049;-68
2022/01/17 12:07:41;;;;;;;5.32;4.13;;;5.50;95.50;;;;;;5000498;28;20455;-69
2022/01/17 12:10:12;;;;;;;4.85;3.83;;;5.50;95.50;;;;;;5000056;28;20029;-68
2022/01/17 12:12:38;;;;;;;4.97;3.53;;;5.50;95.40;;;;;;5001808;28;20034;-69
2022/01/17 12:15:16;;;;;;;5.75;4.10;;;5.60;95.40;;;;;;5002287;28;20047;-68
2022/01/17 12:17:43;;;;;;;4.80;3.22;;;5.60;95.30;;;;;;5000759;28;20069;-68
2022/01/17 12:20:12;;;;;;;5.32;3.33;;;5.70;95.30;;;;;;4998321;28;20768;-67
2022/01/17 12:22:57;;;;;;;6.30;3.47;;;5.70;95.10;;;;;;5006273;28;20033;-71
2022/01/17 12:25:31;;;;;;;4.25;3.22;;;5.80;95.10;;;;;;5002463;28;20034;-69
2022/01/17 12:28:03;;;;;;;3.03;2.45;;;5.80;94.90;;;;;;5001016;28;20037;-68
2022/01/17 12:30:52;;;;;;;3.92;3.00;;;5.70;94.80;;;;;;5004108;28;20578;-69
2022/01/17 12:33:30;;;;;;;6.68;3.35;;;5.70;95.00;;;;;;4998534;28;20038;-67
2022/01/17 12:35:59;;;;;;;4.28;3.47;;;5.70;95.10;;;;;;4996183;28;20046;-67
2022/01/17 12:38:31;;;;;;;5.10;3.05;;;5.60;95.10;;;;;;4999958;28;20022;-71
2022/01/17 12:40:58;;;;;;;4.00;3.03;;;5.60;95.30;;;;;;5002190;28;20102;-68
2022/01/17 12:43:34;;;;;;;6.03;2.95;;;5.60;95.40;;;;;;5003906;28;20495;-68
2022/01/17 12:46:06;;;;;;;3.95;3.05;;;5.50;95.60;;;;;;5001320;28;20036;-70
2022/01/17 12:48:34;;;;;;;4.97;2.67;;;5.50;95.70;;;;;;5003700;28;20022;-64
2022/01/17 12:51:05;;;;;;;4.13;2.63;;;5.50;95.80;;;;;;4997444;28;20137;-62
2022/01/17 12:53:32;;;;;;;2.72;2.22;;;5.50;95.80;;;;;;4999529;28;20128;-72
2022/01/17 12:56:02;;;;;;;3.33;2.75;;;5.50;95.70;;;;;;5000104;28;20580;-66
2022/01/17 12:58:43;;;;;;;11.25;2.65;;;5.60;95.60;;;;;;4995835;28;20040;-67
2022/01/17 13:01:14;;;;;;;3.97;2.83;;;5.60;95.30;;;;;;4998614;28;20365;-65
2022/01/17 13:03:43;;;;;;;4.38;2.67;;;5.60;95.40;;;;;;4997241;28;20116;-66
2022/01/17 13:06:15;;;;;;;4.30;2.80;;;5.60;95.80;;;;;;4996041;28;20047;-66
2022/01/17 13:08:43;;;;;;;3.33;2.53;;;5.50;96.60;;;;;;5004851;28;20029;-69
2022/01/17 13:11:13;;;;;;;7.10;2.67;;;5.50;97.00;;;;;;5002609;28;20048;-67
2022/01/17 13:13:46;;;;;;;3.75;3.03;;;5.50;96.80;;;;;;5005258;28;20042;-67
2022/01/17 13:16:12;;;;;;;3.28;2.38;;;5.50;97.40;;;;;;4996647;28;20117;-67
2022/01/17 13:18:38;;;;;;;4.40;2.63;;;5.40;97.50;;;;;;5000755;28;20026;-68
2022/01/17 13:21:04;;;;;;;3.92;2.88;;;5.40;98.10;;;;;;5006952;28;20034;-68
2022/01/17 13:23:49;;;;;;;4.60;2.33;;;5.30;98.10;;;;;;5002885;28;20030;-70
2022/01/17 13:26:18;;;;;;;5.30;2.78;;;5.30;98.10;;;;;;5002713;28;20124;-70
2022/01/17 13:28:53;;;;;;;2.88;2.20;;;5.30;98.10;;;;;;5003750;28;20034;-68